createdAt,value
2019-05-29T01:24:20.581Z,7.70
2019-05-29T01:26:53.760Z,9.83
2019-05-29T01:29:30.106Z,7.90
2019-05-29T01:32:02.004Z,11.17
2019-05-29T01:34:38.446Z,6.73
2019-05-29T01:37:14.395Z,9.63
2019-05-29T01:39:55.038Z,8.07
2019-05-29T01:42:27.851Z,10.50
2019-05-29T01:45:07.652Z,10.33
2019-05-29T01:47:56.390Z,8.67
2019-05-29T01:50:33.158Z,7.50
2019-05-29T01:53:24.188Z,11.77
2019-05-29T01:56:11.456Z,8.80
2019-05-29T01:59:12.358Z,9.00
2019-05-29T02:01:44.595Z,14.97
2019-05-29T02:04:25.965Z,10.57
2019-05-29T02:07:05.570Z,10.57
2019-05-29T02:09:45.014Z,11.27
2019-05-29T02:12:20.768Z,13.07
2019-05-29T02:14:58.807Z,8.17
2019-05-29T02:18:05.380Z,13.30
2019-05-29T02:20:52.374Z,9.33
2019-05-29T02:23:56.450Z,12.10
2019-05-29T02:26:51.386Z,8.53
2019-05-29T02:29:43.413Z,9.70
2019-05-29T02:35:20.264Z,10.40
2019-05-29T02:38:29.097Z,12.77
2019-05-29T02:41:29.953Z,13.63
2019-05-29T02:43:39.627Z,11.87
2019-05-29T02:46:14.419Z,11.47
2019-05-29T02:48:59.345Z,12.97
2019-05-29T02:51:30.519Z,12.67
2019-05-29T02:54:02.460Z,11.80
2019-05-29T02:56:33.480Z,12.10
2019-05-29T02:59:04.430Z,14.73
2019-05-29T03:01:40.388Z,14.90
2019-05-29T03:04:14.816Z,18.13
2019-05-29T03:06:50.615Z,16.30
2019-05-29T03:09:26.659Z,12.73
2019-05-29T03:12:02.446Z,12.77
2019-05-29T03:14:35.346Z,10.87
2019-05-29T03:17:09.413Z,11.17
2019-05-29T03:19:45.697Z,11.80
2019-05-29T03:22:18.028Z,15.97
2019-05-29T03:24:50.535Z,11.23
2019-05-29T03:27:29.774Z,14.73
2019-05-29T03:30:18.997Z,14.63
2019-05-29T03:33:15.779Z,11.20
2019-05-29T03:36:06.601Z,14.93
2019-05-29T03:38:32.679Z,15.10
2019-05-29T03:41:18.700Z,16.50
2019-05-29T03:44:30.659Z,14.53
2019-05-29T03:47:01.705Z,15.27
2019-05-29T03:49:53.907Z,14.00
2019-05-29T03:52:34.713Z,16.37
2019-05-29T03:55:12.136Z,12.63
2019-05-29T03:57:49.237Z,14.53
2019-05-29T04:00:38.647Z,16.97
2019-05-29T04:03:16.462Z,19.10
2019-05-29T04:09:05.931Z,21.87
2019-05-29T04:12:01.689Z,17.47
2019-05-29T04:14:29.809Z,17.37
2019-05-29T04:17:31.977Z,18.60
2019-05-29T04:21:00.809Z,18.30
2019-05-29T04:23:41.512Z,20.00
2019-05-29T04:26:23.202Z,22.67
2019-05-29T04:28:57.660Z,16.60
2019-05-29T04:31:29.908Z,18.20
2019-05-29T04:34:07.810Z,17.57
2019-05-29T04:55:45.903Z,15.70
2019-05-29T04:58:37.403Z,18.47
2019-05-29T06:35:22.994Z,7.77
2019-05-29T06:38:26.172Z,5.57
2019-05-29T06:44:49.977Z,5.17
2019-05-29T06:51:55.382Z,7.03
2019-05-29T06:55:01.872Z,5.80
2019-05-29T07:13:03.200Z,3.77
2019-05-29T08:04:25.262Z,6.03
2019-05-29T08:39:41.111Z,5.80
2019-05-29T08:42:23.749Z,3.13
2019-05-29T08:45:27.917Z,2.10
2019-05-29T08:48:17.074Z,3.60
2019-05-29T08:50:59.517Z,4.57
2019-05-29T08:53:37.256Z,5.00
2019-05-29T08:56:09.284Z,2.63
2019-05-29T08:58:44.412Z,2.30
2019-05-29T09:01:17.109Z,3.70
2019-05-29T09:03:53.984Z,2.40
2019-05-29T09:06:35.164Z,2.23
2019-05-29T09:09:14.432Z,2.30
2019-05-29T09:11:52.002Z,6.03
2019-05-29T09:14:25.401Z,4.17
2019-05-29T09:17:01.298Z,4.73
2019-05-29T09:19:37.169Z,3.77
2019-05-29T09:22:14.925Z,6.00
2019-05-29T09:24:45.534Z,5.13
2019-05-29T09:27:48.016Z,2.37
2019-05-29T09:30:24.021Z,2.63
2019-05-29T09:32:53.035Z,4.40
2019-05-29T09:35:47.280Z,4.47
2019-05-29T09:38:28.254Z,7.33
2019-05-29T09:41:02.012Z,3.90
2019-05-29T09:43:37.408Z,1.73
2019-05-29T09:46:12.062Z,4.17
2019-05-29T09:48:49.723Z,3.58
2019-05-29T09:51:21.664Z,2.72
2019-05-29T09:53:50.568Z,3.83
2019-05-29T09:56:27.583Z,3.10
2019-05-29T09:59:00.497Z,5.08
2019-05-29T10:01:32.690Z,5.92
2019-05-29T10:04:06.437Z,2.33
2019-05-29T10:06:40.810Z,3.30
2019-05-29T10:10:27.376Z,2.65
2019-05-29T10:11:58.502Z,2.45
2019-05-29T10:14:28.108Z,3.62
2019-05-29T10:17:05.941Z,2.77
2019-05-29T10:19:33.200Z,2.67
2019-05-29T10:22:09.604Z,3.37
2019-05-29T10:24:43.665Z,2.37
2019-05-29T10:27:18.287Z,3.37
2019-05-29T10:29:51.703Z,3.10
2019-05-29T10:32:25.363Z,3.47
2019-05-29T10:34:57.709Z,4.35
2019-05-29T10:37:31.045Z,3.35
2019-05-29T10:40:06.717Z,3.08
2019-05-29T10:42:39.688Z,3.72
2019-05-29T10:45:11.229Z,3.27
2019-05-29T10:47:45.425Z,4.25
2019-05-29T10:50:18.833Z,2.77
2019-05-29T10:52:52.296Z,3.12
2019-05-29T10:55:34.955Z,2.42
2019-05-29T10:58:10.882Z,3.45
2019-05-29T11:00:53.180Z,3.60
2019-05-29T11:03:20.787Z,3.55
2019-05-29T11:05:51.934Z,2.08
2019-05-29T11:08:25.245Z,3.23
2019-05-29T11:11:15.071Z,3.37
2019-05-29T11:13:43.569Z,3.60
2019-05-29T11:16:19.757Z,2.63
2019-05-29T11:18:57.579Z,5.73
2019-05-29T11:21:29.680Z,4.10
2019-05-29T11:26:41.639Z,3.52
2019-05-29T11:29:17.803Z,3.35
2019-05-29T11:31:53.222Z,3.20
2019-05-29T11:34:26.598Z,4.65
2019-05-29T11:37:00.881Z,2.67
2019-05-29T11:39:34.123Z,4.05
2019-05-29T11:42:27.393Z,3.35
2019-05-29T11:45:03.807Z,2.72
2019-05-29T11:47:38.338Z,3.35
2019-05-29T11:50:20.694Z,3.22
2019-05-29T11:52:54.510Z,3.52
2019-05-29T11:55:28.033Z,3.35
2019-05-29T11:58:04.332Z,4.83
2019-05-29T12:23:11.347Z,3.77
2019-05-29T12:26:20.103Z,2.27
2019-05-29T12:28:50.459Z,3.37
2019-05-29T12:31:54.821Z,5.28
2019-05-29T12:34:52.829Z,2.87
2019-05-29T12:37:18.140Z,3.22
2019-05-29T12:39:55.435Z,2.12
2019-05-29T12:42:36.284Z,3.42
2019-05-29T12:45:24.691Z,4.00
2019-05-29T12:48:06.685Z,3.67
2019-05-29T12:50:49.842Z,2.05
2019-05-29T12:53:37.309Z,3.20
2019-05-29T12:56:50.475Z,2.50
2019-05-29T12:59:21.375Z,2.30
2019-05-29T13:05:58.228Z,2.10
2019-05-29T13:09:47.678Z,3.58
2019-05-29T13:12:19.954Z,3.60
2019-05-29T13:15:14.295Z,2.80
2019-05-29T13:18:11.225Z,2.80
2019-05-29T13:22:32.978Z,4.28
2019-05-29T13:24:34.382Z,3.42
2019-05-29T13:30:59.723Z,4.40
2019-05-29T13:33:34.158Z,2.15
2019-05-29T13:36:31.946Z,3.65
2019-05-29T13:41:11.181Z,4.00
2019-05-29T13:42:11.802Z,2.52
2019-05-29T13:44:51.538Z,2.47
2019-05-29T13:50:34.379Z,3.22
2019-05-29T13:53:09.358Z,2.08
2019-05-29T14:44:46.972Z,4.15
2019-05-29T14:47:24.044Z,4.28
2019-05-29T14:50:09.112Z,3.05
2019-05-29T14:52:50.993Z,4.62
2019-05-29T14:55:45.855Z,3.37
2019-05-29T15:21:57.041Z,3.60
2019-05-29T15:24:29.745Z,2.12
2019-05-29T15:27:14.102Z,2.77
2019-05-29T15:29:51.576Z,3.10
2019-05-29T15:32:42.791Z,3.05
2019-05-29T15:35:13.752Z,3.50
2019-05-29T15:37:44.220Z,1.60
2019-05-29T15:40:29.071Z,3.70
2019-05-29T15:43:06.527Z,3.50
2019-05-29T15:45:51.158Z,2.08
2019-05-29T15:48:38.263Z,4.35
2019-05-29T15:51:36.308Z,4.85
2019-05-29T15:54:09.138Z,4.87
2019-05-29T15:56:50.606Z,5.83
2019-05-29T15:59:38.988Z,2.17
2019-05-29T16:02:29.038Z,4.17
2019-05-29T16:36:38.493Z,1.92
2019-05-29T16:39:19.183Z,2.75
2019-05-29T16:42:11.883Z,2.83
2019-05-29T19:04:12.543Z,2.43
2019-05-29T19:06:44.889Z,2.50
2019-05-29T19:09:15.751Z,3.27
2019-05-29T19:11:47.811Z,2.03
2019-05-29T19:14:21.871Z,2.43
2019-05-29T19:16:55.979Z,1.20
2019-05-29T19:19:30.269Z,4.37
2019-05-29T19:22:02.442Z,2.43
2019-05-29T19:24:39.673Z,4.47
2019-05-29T19:27:30.231Z,3.73
2019-05-29T19:29:48.691Z,2.23
2019-05-29T19:32:20.832Z,2.33
2019-05-29T19:34:58.007Z,3.83
2019-05-29T19:37:34.131Z,2.37
2019-05-29T19:40:09.841Z,1.53
2019-05-29T19:42:44.096Z,3.43
2019-05-29T19:45:15.400Z,5.40
2019-05-29T20:10:35.471Z,3.93
2019-05-29T20:16:16.601Z,2.50
2019-05-29T20:23:24.104Z,4.50
2019-05-29T20:31:02.231Z,3.40
2019-05-29T20:34:46.106Z,2.97
2019-05-29T23:00:02.958Z,4.70
